Time;durP1;ratioP1;P1;durP2;ratioP2;P2;SDS_P1;SDS_P2;PMS_P1;PMS_P2;Temp;Humidity;BMP_temperature;BMP_pressure;BME280_temperature;BME280_humidity;BME280_pressure;Samples;Min_cycle;Max_cycle;Signal;HPM_P1;HPM_P2
2023/01/19 00:02:18;;;;;;;9.93;7.10;;;-1.70;99.90;-2.10;99223.00;;;;4963111;28;117409;-77
2023/01/19 00:04:43;;;;;;;15.13;8.30;;;-1.70;99.90;-2.10;99233.00;;;;4964444;28;87804;-77
2023/01/19 00:07:09;;;;;;;14.53;9.37;;;-1.70;99.90;-2.20;99231.00;;;;4964461;28;104883;-77
2023/01/19 00:09:37;;;;;;;12.63;8.67;;;-1.80;99.90;-2.30;99244.00;;;;4966970;28;116533;-77
2023/01/19 00:12:04;;;;;;;13.63;9.87;;;-1.90;99.90;-2.30;99243.00;;;;4966876;28;88249;-76
2023/01/19 00:14:29;;;;;;;15.00;8.73;;;-1.30;99.90;-2.40;99243.00;;;;4983880;27;102795;-76
2023/01/19 00:16:55;;;;;;;14.33;9.53;;;-2.00;99.90;-2.40;99246.00;;;;4969090;28;88046;-76
2023/01/19 00:19:21;;;;;;;14.30;8.47;;;-2.00;99.90;-2.50;99258.00;;;;4967278;28;115859;-75
2023/01/19 00:21:46;;;;;;;13.00;8.27;;;-2.10;99.90;-2.50;99258.00;;;;4968588;28;95524;-75
2023/01/19 00:24:12;;;;;;;14.23;8.43;;;-2.10;99.90;-2.60;99279.00;;;;4949015;28;110928;-75
2023/01/19 00:26:41;;;;;;;12.57;7.70;;;-1.20;99.90;-2.60;99280.00;;;;4964262;28;88880;-74
2023/01/19 00:29:10;;;;;;;12.93;8.50;;;-2.20;99.90;-2.60;99270.00;;;;4964962;28;90783;-74
2023/01/19 00:31:36;;;;;;;16.63;8.80;;;-2.20;99.90;-2.70;99267.00;;;;4963533;28;107942;-74
2023/01/19 00:34:03;;;;;;;19.50;11.03;;;-2.20;99.90;-2.70;99289.00;;;;4967715;28;110806;-74
2023/01/19 00:36:29;;;;;;;13.10;8.73;;;-3.20;99.90;-2.70;99273.00;;;;4967273;28;87808;-74
2023/01/19 00:38:55;;;;;;;18.97;8.80;;;-2.30;99.90;-2.80;99271.00;;;;4953603;28;90159;-74
2023/01/19 00:42:38;;;;;;;16.50;9.53;;;-2.30;99.90;-2.80;99283.00;;;;4968670;28;117808;-74
2023/01/19 00:44:07;;;;;;;15.50;9.43;;;-2.40;99.90;-2.80;99275.00;;;;4965116;28;87208;-74
2023/01/19 00:46:33;;;;;;;15.43;8.97;;;-2.40;99.90;-2.90;99297.00;;;;4950128;28;107935;-74
2023/01/19 00:48:58;;;;;;;14.30;9.47;;;-2.50;99.90;-2.90;99278.00;;;;4963665;28;107388;-74
2023/01/19 00:51:24;;;;;;;15.10;8.60;;;-2.50;99.90;-2.90;99292.00;;;;4966939;28;117415;-73
2023/01/19 00:53:50;;;;;;;13.83;9.10;;;-2.50;99.90;-2.90;99283.00;;;;4965029;28;109359;-73
2023/01/19 00:56:16;;;;;;;18.57;9.87;;;-2.50;99.90;-2.90;99278.00;;;;4950776;28;109821;-73
2023/01/19 00:58:43;;;;;;;20.77;9.87;;;-2.50;99.90;-3.00;99281.00;;;;4968198;28;88047;-73
2023/01/19 01:01:09;;;;;;;15.73;9.30;;;-2.40;99.90;-3.00;99299.00;;;;4968259;28;87776;-73
2023/01/19 01:03:35;;;;;;;12.87;9.27;;;-1.90;99.90;-3.00;99297.00;;;;4963644;28;95855;-73
2023/01/19 01:06:02;;;;;;;14.33;9.20;;;-2.70;99.90;-3.00;99313.00;;;;4971068;28;87871;-73
2023/01/19 01:08:29;;;;;;;17.93;10.57;;;-2.70;99.90;-3.10;99311.00;;;;4970368;28;87648;-72
2023/01/19 01:10:55;;;;;;;15.07;8.47;;;-2.60;99.90;-3.10;99317.00;;;;4964270;28;88206;-72
2023/01/19 01:13:21;;;;;;;14.40;9.70;;;-2.70;99.90;-3.20;99307.00;;;;4962592;28;112549;-73
2023/01/19 01:15:52;;;;;;;18.43;10.40;;;-2.70;99.90;-3.20;99318.00;;;;4963096;28;100644;-72
2023/01/19 01:18:17;;;;;;;15.50;10.17;;;-2.80;99.90;-3.20;99314.00;;;;4965727;28;88259;-72
2023/01/19 01:20:43;;;;;;;17.60;10.83;;;-2.90;99.90;-3.20;99304.00;;;;4967563;28;115986;-72
2023/01/19 01:23:09;;;;;;;16.63;10.43;;;-2.80;99.90;-3.30;99317.00;;;;4964153;28;112989;-72
2023/01/19 01:25:36;;;;;;;17.23;10.30;;;-2.80;99.90;-3.30;99308.00;;;;4962774;28;107447;-72
2023/01/19 01:28:05;;;;;;;18.63;8.70;;;-2.80;99.90;-3.40;99320.00;;;;4966958;28;88161;-72
2023/01/19 01:30:31;;;;;;;16.63;9.57;;;-2.80;99.90;-3.40;99327.00;;;;4972239;28;87876;-72
2023/01/19 01:32:57;;;;;;;14.47;9.73;;;-2.90;99.90;-3.40;99327.00;;;;4971489;28;110322;-71
2023/01/19 01:35:22;;;;;;;18.70;10.23;;;-2.90;99.90;-3.40;99318.00;;;;4985376;28;107902;-72
2023/01/19 01:37:48;;;;;;;15.47;10.13;;;-3.00;99.90;-3.50;99324.00;;;;4986365;28;87998;-72
2023/01/19 01:40:16;;;;;;;23.03;10.30;;;-4.40;99.90;-3.50;99320.00;;;;4977329;28;114809;-72
2023/01/19 01:42:43;;;;;;;8.63;5.97;;;-3.00;99.90;-3.50;99319.00;;;;4970666;28;88443;-71
2023/01/19 01:45:34;;;;;;;12.53;8.10;;;-3.00;99.90;-3.70;99317.00;;;;4970458;28;88052;-72
2023/01/19 01:48:05;;;;;;;15.73;7.83;;;-3.10;99.90;-3.60;99311.00;;;;4971334;28;88327;-72
2023/01/19 01:50:35;;;;;;;15.00;9.23;;;-3.80;99.90;-3.70;99314.00;;;;4970642;28;87901;-72
2023/01/19 01:53:12;;;;;;;14.63;9.13;;;-3.20;99.90;-3.70;99315.00;;;;4970161;28;100516;-72
2023/01/19 01:55:44;;;;;;;18.03;9.97;;;-3.30;99.90;-3.70;99322.00;;;;4969596;28;87979;-71
2023/01/19 01:58:11;;;;;;;17.73;9.63;;;-3.30;99.90;-3.80;99317.00;;;;4971545;28;98742;-71
2023/01/19 02:03:24;;;;;;;20.97;9.40;;;-3.40;99.90;-3.90;99315.00;;;;4970836;28;88287;-72
2023/01/19 02:05:51;;;;;;;15.97;9.10;;;-3.40;99.90;-3.90;99329.00;;;;4965637;28;109040;-72
2023/01/19 02:13:49;;;;;;;16.60;9.60;;;-3.50;99.90;-4.00;99320.00;;;;4965804;28;87966;-71
2023/01/19 02:16:16;;;;;;;17.40;10.03;;;-3.40;99.90;-4.00;99327.00;;;;4969913;28;89411;-71
2023/01/19 02:18:44;;;;;;;16.83;7.83;;;-3.50;99.90;-4.00;99322.00;;;;4969939;28;102192;-71
2023/01/19 02:21:21;;;;;;;13.43;8.17;;;-3.60;99.90;-4.00;99335.00;;;;4969708;28;89364;-72
2023/01/19 02:23:50;;;;;;;15.10;9.13;;;-3.60;99.90;-4.10;99322.00;;;;4972708;28;87120;-71
2023/01/19 02:26:34;;;;;;;16.17;9.10;;;-3.60;99.90;-4.10;99335.00;;;;4952678;28;87709;-71
2023/01/19 02:29:03;;;;;;;11.63;7.27;;;-3.50;99.90;-4.10;99329.00;;;;4955171;28;100968;-71
2023/01/19 02:31:31;;;;;;;16.33;7.97;;;-3.60;99.90;-4.10;99336.00;;;;4966349;28;106679;-71
2023/01/19 02:33:59;;;;;;;17.63;9.30;;;-3.40;99.90;-4.20;99339.00;;;;4964045;28;96877;-71
2023/01/19 02:36:55;;;;;;;12.00;8.47;;;-3.80;99.90;-4.30;99344.00;;;;4982426;28;87966;-71
2023/01/19 02:39:44;;;;;;;17.30;9.90;;;-3.80;99.90;-4.40;99343.00;;;;4969264;28;87722;-72
2023/01/19 02:42:45;;;;;;;19.50;9.10;;;-3.80;99.90;-4.50;99339.00;;;;4953978;28;92065;-71
2023/01/19 02:45:14;;;;;;;11.43;8.37;;;-4.00;99.90;-4.50;99341.00;;;;4968840;28;87961;-71
2023/01/19 02:47:46;;;;;;;12.87;7.90;;;-3.90;99.90;-4.50;99341.00;;;;4968053;28;87935;-70
2023/01/19 02:50:37;;;;;;;16.43;9.20;;;-4.00;99.90;-4.50;99348.00;;;;4970274;28;98704;-71
2023/01/19 02:53:30;;;;;;;14.97;8.20;;;-4.10;99.90;-4.50;99341.00;;;;4968313;28;88626;-71
2023/01/19 02:56:16;;;;;;;13.87;7.57;;;-4.10;99.90;-4.60;99343.00;;;;4968724;28;87925;-71
2023/01/19 02:59:09;;;;;;;13.73;8.27;;;-4.00;99.90;-4.60;99358.00;;;;4965084;28;88731;-72
2023/01/19 03:01:52;;;;;;;17.10;8.50;;;-4.10;99.90;-4.60;99350.00;;;;4969110;28;107019;-71
2023/01/19 03:04:34;;;;;;;15.70;8.97;;;-4.10;99.90;-4.70;99350.00;;;;4972707;28;88041;-71
2023/01/19 03:07:37;;;;;;;13.00;8.17;;;-3.10;99.90;-4.70;99358.00;;;;4972004;28;87755;-71
2023/01/19 03:10:44;;;;;;;13.50;7.60;;;-4.10;99.90;-4.70;99352.00;;;;4965268;28;95038;-71
2023/01/19 03:13:26;;;;;;;13.97;7.53;;;-4.10;99.90;-4.50;99353.00;;;;4930343;28;105714;-72
2023/01/19 03:15:59;;;;;;;14.27;7.90;;;-3.90;99.90;-4.50;99349.00;;;;4964414;28;107441;-71
2023/01/19 03:18:27;;;;;;;15.17;8.97;;;-4.00;99.90;-4.50;99352.00;;;;4970833;28;106389;-71
2023/01/19 03:20:57;;;;;;;15.30;8.30;;;-4.00;99.90;-4.50;99347.00;;;;4966803;28;102436;-72
2023/01/19 03:23:30;;;;;;;15.40;8.37;;;-4.10;99.90;-4.50;99351.00;;;;4952362;28;109189;-71
2023/01/19 03:25:58;;;;;;;14.23;6.67;;;-4.00;99.90;-4.40;99343.00;;;;4964780;28;89924;-72
2023/01/19 03:28:25;;;;;;;22.03;8.37;;;-3.90;99.90;-4.40;99346.00;;;;4970032;28;98153;-71
2023/01/19 03:30:59;;;;;;;13.10;7.80;;;-4.10;99.90;-4.40;99348.00;;;;4970935;28;94717;-72
2023/01/19 03:33:31;;;;;;;13.67;8.00;;;-3.90;99.90;-4.40;99350.00;;;;4970394;28;106824;-71
2023/01/19 03:36:07;;;;;;;20.40;8.63;;;-3.60;99.90;-4.40;99351.00;;;;4965518;28;89096;-71
2023/01/19 03:38:36;;;;;;;12.20;7.80;;;-4.10;99.90;-4.40;99355.00;;;;4970588;28;89494;-71
2023/01/19 03:41:09;;;;;;;15.37;7.53;;;-3.90;99.90;-4.50;99357.00;;;;4953604;28;87672;-71
2023/01/19 03:43:37;;;;;;;11.67;7.47;;;-3.90;99.90;-4.40;99368.00;;;;4953681;28;107353;-71
2023/01/19 03:46:04;;;;;;;12.47;7.83;;;-4.00;99.90;-4.40;99368.00;;;;4982431;27;116736;-70
2023/01/19 03:48:31;;;;;;;11.93;7.03;;;-4.00;99.90;-4.40;99363.00;;;;4986485;27;88993;-71
2023/01/19 03:50:56;;;;;;;10.20;6.17;;;-3.90;99.90;-4.40;99349.00;;;;4969462;28;99084;-70
2023/01/19 03:53:22;;;;;;;17.07;8.57;;;-4.00;99.90;-4.40;99352.00;;;;4961308;28;117196;-70
2023/01/19 03:55:50;;;;;;;13.17;8.23;;;-4.10;99.90;-4.40;99356.00;;;;4965063;28;116669;-70
2023/01/19 03:58:16;;;;;;;16.00;8.63;;;-4.00;99.90;-4.50;99352.00;;;;4967835;28;93463;-70
2023/01/19 04:00:42;;;;;;;13.70;8.40;;;-3.90;99.90;-4.60;99359.00;;;;4970055;28;88176;-70
2023/01/19 04:03:14;;;;;;;16.53;9.03;;;-4.10;99.90;-4.60;99369.00;;;;4965726;28;117628;-72
2023/01/19 04:05:40;;;;;;;30.37;15.13;;;-4.10;99.90;-4.70;99364.00;;;;4969832;28;89226;-70
2023/01/19 04:08:06;;;;;;;18.77;10.80;;;-4.20;99.90;-4.70;99367.00;;;;4966902;28;87252;-69
2023/01/19 04:10:32;;;;;;;18.37;10.80;;;-4.10;99.90;-4.70;99360.00;;;;4967934;28;87819;-71
2023/01/19 04:12:59;;;;;;;17.97;9.17;;;-4.30;99.90;-4.70;99362.00;;;;4964590;28;118100;-71
2023/01/19 04:15:26;;;;;;;12.73;7.43;;;-4.30;99.90;-4.70;99366.00;;;;4971925;28;89312;-71
2023/01/19 04:17:51;;;;;;;12.60;7.40;;;-4.20;99.90;-4.70;99357.00;;;;4975632;28;87936;-71
2023/01/19 04:20:17;;;;;;;11.07;7.07;;;-4.20;99.90;-4.70;99365.00;;;;4965781;28;87878;-71
2023/01/19 04:22:43;;;;;;;10.67;6.27;;;-4.20;99.90;-4.70;99371.00;;;;4969013;28;87747;-71
2023/01/19 04:25:09;;;;;;;13.10;6.80;;;-4.20;99.90;-4.60;99369.00;;;;4966716;28;116289;-70
2023/01/19 04:27:35;;;;;;;13.80;6.73;;;-4.20;99.90;-4.70;99373.00;;;;4964887;28;108324;-70
2023/01/19 04:30:03;;;;;;;16.70;6.97;;;-4.20;99.90;-4.70;99382.00;;;;4966124;27;87820;-70
2023/01/19 04:32:30;;;;;;;12.67;7.20;;;-4.20;99.90;-4.70;99383.00;;;;4967438;28;87537;-70
2023/01/19 04:34:56;;;;;;;13.60;6.40;;;-4.20;99.90;-4.70;99387.00;;;;4967089;28;95504;-70
2023/01/19 04:37:21;;;;;;;9.27;5.57;;;-4.20;99.90;-4.70;99376.00;;;;4970718;28;108870;-70
2023/01/19 04:39:47;;;;;;;9.93;5.53;;;-4.20;99.90;-4.70;99374.00;;;;4967229;28;106983;-69
2023/01/19 04:42:13;;;;;;;15.27;6.17;;;-4.20;99.90;-4.70;99385.00;;;;4962233;28;116598;-70
2023/01/19 04:44:38;;;;;;;12.27;6.97;;;-4.10;99.90;-4.70;99379.00;;;;4966217;28;118656;-70
2023/01/19 04:47:04;;;;;;;11.07;6.70;;;-4.20;99.90;-4.70;99381.00;;;;4970496;28;111433;-69
2023/01/19 04:49:30;;;;;;;11.70;7.37;;;-4.20;99.90;-4.70;99386.00;;;;4969197;28;87921;-69
2023/01/19 04:51:56;;;;;;;10.87;6.90;;;-4.20;99.90;-4.70;99393.00;;;;4969058;28;117030;-69
2023/01/19 04:54:21;;;;;;;12.37;7.00;;;-4.30;99.90;-4.70;99389.00;;;;4967409;28;117607;-69
2023/01/19 04:56:47;;;;;;;8.50;5.53;;;-4.10;99.90;-4.70;99381.00;;;;4970035;27;110196;-69
2023/01/19 04:59:13;;;;;;;10.67;6.17;;;-4.30;99.90;-4.70;99374.00;;;;4965594;28;88118;-69
2023/01/19 05:01:39;;;;;;;9.23;5.43;;;-4.30;99.90;-4.70;99389.00;;;;4970349;28;117753;-69
2023/01/19 05:04:06;;;;;;;11.30;7.37;;;-3.60;99.90;-4.70;99380.00;;;;4968970;28;106972;-69
2023/01/19 05:06:33;;;;;;;6.90;4.50;;;-4.20;99.90;-4.70;99377.00;;;;4972002;28;88071;-69
2023/01/19 05:08:59;;;;;;;11.53;5.60;;;-4.30;99.90;-4.80;99380.00;;;;4970775;28;87912;-69
2023/01/19 05:11:25;;;;;;;10.47;7.10;;;-4.30;99.90;-4.80;99382.00;;;;4966323;28;116824;-69
2023/01/19 05:13:50;;;;;;;10.80;6.53;;;-4.40;99.90;-4.90;99389.00;;;;4972974;28;117552;-68
2023/01/19 05:16:16;;;;;;;12.53;6.63;;;-4.40;99.90;-4.90;99388.00;;;;4969906;28;108493;-68
2023/01/19 05:18:42;;;;;;;12.60;6.80;;;-4.40;99.90;-4.90;99378.00;;;;4971316;28;108795;-69
2023/01/19 05:21:07;;;;;;;12.43;6.53;;;-4.40;99.90;-5.00;99386.00;;;;4975463;28;102527;-68
2023/01/19 05:23:33;;;;;;;9.80;4.97;;;-4.50;99.90;-5.00;99378.00;;;;4984129;28;104842;-68
2023/01/19 05:26:00;;;;;;;9.83;6.17;;;-4.40;99.90;-5.00;99383.00;;;;4996695;28;94904;-69
2023/01/19 05:28:31;;;;;;;11.50;5.77;;;-4.50;99.90;-5.10;99378.00;;;;4978411;28;88786;-68
2023/01/19 05:30:56;;;;;;;12.10;6.50;;;-4.50;99.90;-5.10;99374.00;;;;4971678;28;88960;-68
2023/01/19 05:33:23;;;;;;;10.00;5.40;;;-4.50;99.90;-5.20;99372.00;;;;4969812;28;102922;-68
2023/01/19 05:35:50;;;;;;;8.07;5.50;;;-4.70;99.90;-5.20;99385.00;;;;4971482;28;87997;-68
2023/01/19 05:38:16;;;;;;;11.87;6.47;;;-4.60;99.90;-5.10;99372.00;;;;4970326;28;94914;-69
2023/01/19 05:40:42;;;;;;;11.30;5.80;;;-4.60;99.90;-5.10;99375.00;;;;4951878;28;89460;-68
2023/01/19 05:43:08;;;;;;;10.33;5.60;;;-4.70;99.90;-5.10;99371.00;;;;4966196;28;118760;-68
2023/01/19 05:45:34;;;;;;;10.63;6.40;;;-4.60;99.90;-5.10;99369.00;;;;4968701;28;102078;-68
2023/01/19 05:48:00;;;;;;;10.73;5.93;;;-4.60;99.90;-5.20;99373.00;;;;4966206;28;107457;-68
2023/01/19 05:50:25;;;;;;;11.67;6.53;;;-4.60;99.90;-5.20;99373.00;;;;4976375;28;88293;-68
2023/01/19 05:52:53;;;;;;;12.03;6.53;;;-4.70;99.90;-5.20;99378.00;;;;4966502;28;118235;-69
2023/01/19 05:55:20;;;;;;;9.97;6.13;;;-4.60;99.90;-5.30;99376.00;;;;4969455;28;88059;-68
2023/01/19 05:57:46;;;;;;;7.40;5.20;;;-4.70;99.90;-5.30;99367.00;;;;4969366;28;87744;-69
2023/01/19 06:00:13;;;;;;;9.13;5.10;;;-4.80;99.90;-5.40;99374.00;;;;4968993;28;117724;-68
2023/01/19 06:02:38;;;;;;;11.27;6.03;;;-4.70;99.90;-5.40;99375.00;;;;4970966;28;90104;-68
2023/01/19 06:05:05;;;;;;;7.97;5.50;;;-4.80;99.90;-5.40;99382.00;;;;4970257;28;92779;-68
2023/01/19 06:07:31;;;;;;;9.93;6.07;;;-4.90;99.90;-5.40;99391.00;;;;4971108;28;94182;-68
2023/01/19 06:09:57;;;;;;;9.57;5.67;;;-4.90;99.90;-5.40;99393.00;;;;4971552;28;88481;-69
2023/01/19 06:12:23;;;;;;;7.87;4.87;;;-5.50;99.90;-5.50;99394.00;;;;4968862;28;116626;-69
2023/01/19 06:14:49;;;;;;;8.13;5.63;;;-4.90;99.90;-5.50;99408.00;;;;4967867;28;111408;-68
2023/01/19 06:17:15;;;;;;;8.63;4.80;;;-5.00;99.90;-5.50;99388.00;;;;4969262;28;89109;-68
2023/01/19 06:19:41;;;;;;;14.97;6.27;;;-5.00;99.90;-5.50;99388.00;;;;4967044;28;116689;-69
2023/01/19 06:22:07;;;;;;;10.93;6.30;;;-5.00;99.90;-5.60;99387.00;;;;4971141;28;87788;-68
2023/01/19 06:24:33;;;;;;;8.77;6.07;;;-5.00;99.90;-5.60;99393.00;;;;4968178;28;87855;-68
2023/01/19 06:26:59;;;;;;;9.90;6.00;;;-5.10;99.90;-5.70;99403.00;;;;4968345;28;87793;-69
2023/01/19 06:29:26;;;;;;;11.93;6.83;;;-5.20;99.90;-5.80;99408.00;;;;4969741;28;88446;-68
2023/01/19 06:31:52;;;;;;;10.17;6.17;;;-5.20;99.90;-5.80;99407.00;;;;4969153;28;116831;-68
2023/01/19 06:34:18;;;;;;;11.57;6.20;;;-5.30;99.90;-5.90;99396.00;;;;4971709;28;87147;-68
2023/01/19 06:36:45;;;;;;;8.63;5.53;;;-5.30;99.90;-5.90;99395.00;;;;4970367;28;87928;-69
2023/01/19 06:39:11;;;;;;;8.13;5.50;;;-5.40;99.90;-5.90;99397.00;;;;4965469;28;87701;-68
2023/01/19 06:41:37;;;;;;;14.47;6.90;;;-4.40;99.90;-5.90;99389.00;;;;4962913;28;108910;-68
2023/01/19 06:44:04;;;;;;;10.77;5.73;;;-5.30;99.90;-5.90;99395.00;;;;4966870;28;87963;-69
2023/01/19 06:46:30;;;;;;;9.30;5.93;;;-5.70;99.90;-5.90;99398.00;;;;4966056;28;88315;-68
2023/01/19 06:48:56;;;;;;;11.27;6.03;;;-5.50;99.90;-5.90;99392.00;;;;4968873;28;87772;-68
2023/01/19 06:51:22;;;;;;;7.43;5.17;;;-5.40;99.90;-5.80;99403.00;;;;4965592;28;102193;-68
2023/01/19 06:53:48;;;;;;;8.30;5.50;;;-5.30;99.90;-5.80;99409.00;;;;4967937;28;87811;-68
2023/01/19 06:56:14;;;;;;;7.57;5.07;;;-5.30;99.90;-5.70;99400.00;;;;4966634;28;88299;-68
2023/01/19 06:58:41;;;;;;;10.43;4.40;;;-4.60;99.90;-5.60;99391.00;;;;4967836;28;117046;-68
2023/01/19 07:01:07;;;;;;;11.57;5.57;;;-5.10;99.90;-5.60;99405.00;;;;4969495;28;88000;-68
2023/01/19 07:03:34;;;;;;;6.87;5.10;;;-5.00;99.90;-5.50;99411.00;;;;4970492;28;99676;-69
2023/01/19 07:06:01;;;;;;;7.17;4.87;;;-5.00;99.90;-5.40;99409.00;;;;4969596;28;88433;-67
2023/01/19 07:08:28;;;;;;;9.47;5.07;;;-4.90;99.90;-5.30;99422.00;;;;4972691;28;87975;-68
2023/01/19 07:11:10;;;;;;;10.73;5.73;;;-4.90;99.90;-5.30;99420.00;;;;4968729;28;88012;-67
2023/01/19 07:13:38;;;;;;;11.20;5.10;;;-4.40;99.90;-5.20;99411.00;;;;4973316;28;96688;-67
2023/01/19 07:16:10;;;;;;;9.17;5.37;;;-4.70;99.90;-5.10;99425.00;;;;4968019;28;88194;-68
2023/01/19 07:18:38;;;;;;;10.70;6.13;;;-4.70;99.90;-5.10;99423.00;;;;4964949;28;88232;-68
2023/01/19 07:21:05;;;;;;;10.00;5.43;;;-4.60;99.90;-5.10;99444.00;;;;4970349;28;87986;-68
2023/01/19 07:23:30;;;;;;;9.33;5.43;;;-4.50;99.90;-5.00;99447.00;;;;4969472;28;101137;-68
2023/01/19 07:25:57;;;;;;;7.57;5.17;;;-4.50;99.90;-4.90;99444.00;;;;4962324;28;107895;-68
2023/01/19 07:28:23;;;;;;;9.43;5.77;;;-4.40;99.90;-4.90;99446.00;;;;4965545;28;88280;-68
2023/01/19 07:30:51;;;;;;;7.03;5.30;;;-4.30;99.90;-4.80;99444.00;;;;4965278;28;88652;-67
2023/01/19 07:33:17;;;;;;;10.50;5.73;;;-4.40;99.90;-4.70;99456.00;;;;4969261;28;87795;-68
2023/01/19 07:35:50;;;;;;;8.77;5.57;;;-4.20;99.90;-4.40;99479.00;;;;4969540;28;107981;-67
2023/01/19 07:38:17;;;;;;;7.17;4.87;;;-4.00;99.90;-4.20;99467.00;;;;4964575;28;99957;-68
2023/01/19 07:40:45;;;;;;;7.27;5.27;;;-3.80;99.90;-3.90;99463.00;;;;4968178;28;88477;-68
2023/01/19 14:15:43;;;;;;;9.10;3.43;;;5.10;99.90;4.70;99520.00;;;;4537851;29;88892;-69
2023/01/19 14:18:17;;;;;;;7.40;3.53;;;4.70;99.90;4.50;99513.00;;;;4782930;29;89151;-69
2023/01/19 14:21:03;;;;;;;6.10;3.20;;;4.70;99.90;4.30;99515.00;;;;4765837;29;87794;-69
2023/01/19 14:23:50;;;;;;;4.93;3.27;;;4.60;99.90;4.00;99522.00;;;;4765033;29;87054;-69
2023/01/19 14:26:52;;;;;;;6.87;3.57;;;4.30;99.90;3.80;99514.00;;;;4765384;29;88123;-69
2023/01/19 14:29:25;;;;;;;2.37;2.07;;;4.10;99.90;3.70;99507.00;;;;4778176;29;88133;-70
2023/01/19 14:32:08;;;;;;;4.20;2.57;;;3.90;99.90;3.50;99518.00;;;;4761288;29;88916;-71
2023/01/19 14:34:43;;;;;;;7.20;2.10;;;3.80;99.90;3.30;99523.00;;;;4784175;29;87932;-70
2023/01/19 14:37:20;;;;;;;5.13;3.47;;;3.60;99.90;2.90;99532.00;;;;4764759;29;87959;-70
2023/01/19 14:39:57;;;;;;;4.77;3.33;;;3.30;99.90;2.50;99529.00;;;;4759593;29;87912;-73
2023/01/19 14:42:28;;;;;;;4.23;3.43;;;3.00;99.90;2.10;99535.00;;;;4774185;29;105924;-71
2023/01/19 14:44:57;;;;;;;5.37;2.80;;;3.70;99.90;1.80;99532.00;;;;4762277;29;88655;-70
2023/01/19 14:47:38;;;;;;;6.37;3.00;;;2.20;99.90;1.50;99533.00;;;;4765093;29;88018;-71
2023/01/19 14:50:32;;;;;;;3.30;3.00;;;2.00;99.90;1.20;99529.00;;;;4761098;29;90101;-70
2023/01/19 14:53:13;;;;;;;4.03;3.60;;;1.70;99.90;1.00;99533.00;;;;4757934;29;89527;-70
2023/01/19 14:55:54;;;;;;;7.30;4.47;;;1.40;99.90;0.90;99535.00;;;;4776032;29;101216;-70
2023/01/19 14:58:23;;;;;;;7.47;3.50;;;1.20;99.90;0.70;99529.00;;;;4763677;29;88775;-70
2023/01/19 15:00:49;;;;;;;6.67;4.03;;;1.10;99.90;0.60;99531.00;;;;4760721;29;110224;-71
2023/01/19 15:03:15;;;;;;;5.70;3.30;;;1.00;99.90;0.50;99539.00;;;;4773933;29;89194;-71
2023/01/19 15:05:44;;;;;;;7.60;4.43;;;1.00;99.90;0.40;99534.00;;;;4763699;29;107315;-70
2023/01/19 15:08:16;;;;;;;6.53;3.57;;;0.80;99.90;0.30;99537.00;;;;4765143;29;88167;-70
2023/01/19 15:10:42;;;;;;;6.67;4.23;;;0.80;99.90;0.20;99539.00;;;;4772625;29;108579;-69
2023/01/19 15:13:18;;;;;;;6.47;4.27;;;0.60;99.90;0.10;99553.00;;;;4759526;29;88205;-69
2023/01/19 15:15:43;;;;;;;4.47;3.93;;;0.60;99.90;0.10;99541.00;;;;4765935;29;95708;-69
2023/01/19 15:18:16;;;;;;;7.60;4.50;;;0.40;99.90;0.00;99547.00;;;;4763591;29;93041;-68
2023/01/19 15:20:42;;;;;;;7.07;4.87;;;0.40;99.90;-0.10;99544.00;;;;4760893;29;89000;-69
2023/01/19 15:23:11;;;;;;;9.43;5.90;;;0.30;99.90;-0.20;99544.00;;;;4763182;29;117512;-69
2023/01/19 15:25:41;;;;;;;4.93;4.43;;;0.20;99.90;-0.30;99544.00;;;;4765437;29;102821;-69
2023/01/19 15:28:16;;;;;;;7.07;4.37;;;0.10;99.90;-0.40;99554.00;;;;4756290;29;87960;-69
2023/01/19 15:30:42;;;;;;;7.10;4.07;;;0.00;99.90;-0.40;99547.00;;;;4786524;29;88290;-68
2023/01/19 15:33:23;;;;;;;6.57;4.83;;;0.00;99.90;-0.50;99549.00;;;;4764684;29;116597;-68
2023/01/19 15:35:49;;;;;;;18.83;9.67;;;-0.10;99.90;-0.50;99552.00;;;;4760845;29;87788;-68
2023/01/19 15:38:15;;;;;;;21.30;7.83;;;-0.10;99.90;-0.50;99545.00;;;;4761114;29;103249;-69
2023/01/19 15:40:41;;;;;;;10.63;5.80;;;-0.20;99.90;-0.60;99550.00;;;;4757709;29;107843;-68
2023/01/19 15:43:10;;;;;;;10.40;5.70;;;-0.20;99.90;-0.60;99552.00;;;;4761974;29;113789;-66
2023/01/19 15:45:43;;;;;;;7.47;5.40;;;0.20;99.90;-0.70;99547.00;;;;4761822;29;87819;-66
2023/01/19 15:48:10;;;;;;;8.27;5.13;;;0.60;99.90;-0.70;99560.00;;;;4775723;29;88839;-67
2023/01/19 15:50:40;;;;;;;6.67;4.50;;;-0.30;99.90;-0.70;99555.00;;;;4757264;29;108610;-66
2023/01/19 15:53:13;;;;;;;9.77;6.33;;;-0.30;99.90;-0.80;99554.00;;;;4762735;29;88102;-65
2023/01/19 15:55:48;;;;;;;4.70;3.59;;;-0.20;99.90;-0.90;99551.00;;;;4062575;29;10001678;-65
2023/01/19 15:58:13;;;;;;;9.20;5.20;;;-0.50;99.90;-0.90;99564.00;;;;4780036;29;88069;-66
2023/01/19 16:00:39;;;;;;;9.20;5.73;;;-0.40;99.90;-0.90;99560.00;;;;4774116;29;87940;-65
2023/01/19 16:03:05;;;;;;;6.60;5.27;;;-0.60;99.90;-1.00;99550.00;;;;4780488;29;88268;-66
2023/01/19 16:05:30;;;;;;;12.20;6.53;;;-0.70;99.90;-1.00;99562.00;;;;4779089;29;87180;-65
2023/01/19 16:07:57;;;;;;;10.50;6.83;;;-0.60;99.90;-1.10;99562.00;;;;4790881;29;87860;-65
2023/01/19 16:10:23;;;;;;;12.00;6.50;;;-0.70;99.90;-1.20;99574.00;;;;4781830;29;87754;-66
2023/01/19 16:12:49;;;;;;;7.70;5.13;;;-0.80;99.90;-1.20;99560.00;;;;4783424;29;89213;-66
2023/01/19 16:15:16;;;;;;;8.93;6.83;;;-0.90;99.90;-1.30;99569.00;;;;4778595;29;118067;-66
2023/01/19 16:17:43;;;;;;;13.57;7.87;;;-0.90;99.90;-1.30;99557.00;;;;4782048;29;103590;-66
2023/01/19 16:20:10;;;;;;;14.67;6.40;;;-0.90;99.90;-1.40;99578.00;;;;4777735;29;100088;-66
2023/01/19 16:22:35;;;;;;;9.43;5.77;;;-0.90;99.90;-1.40;99571.00;;;;4780772;29;88052;-66
2023/01/19 16:25:01;;;;;;;8.73;5.93;;;-1.10;99.90;-1.40;99575.00;;;;4783309;29;87833;-66
2023/01/19 16:27:27;;;;;;;8.00;5.43;;;-1.00;99.90;-1.50;99571.00;;;;4785036;29;87731;-66
2023/01/19 16:29:53;;;;;;;8.53;5.20;;;-1.10;99.90;-1.50;99566.00;;;;4782517;29;89750;-66
2023/01/19 16:32:19;;;;;;;12.33;5.50;;;-1.10;99.90;-1.50;99562.00;;;;4781115;29;117342;-66
2023/01/19 16:34:44;;;;;;;13.34;8.34;;;-1.20;99.90;-1.50;99567.00;;;;3925814;29;10001932;-66
2023/01/19 16:37:11;;;;;;;7.87;5.70;;;-1.10;99.90;-1.50;99567.00;;;;4775772;29;89243;-66
2023/01/19 16:39:37;;;;;;;9.90;5.40;;;-1.10;99.90;-1.50;99568.00;;;;4781857;29;88517;-66
2023/01/19 16:42:03;;;;;;;12.03;6.33;;;-1.20;99.90;-1.60;99575.00;;;;4777315;29;92261;-66
2023/01/19 16:44:29;;;;;;;8.40;5.83;;;-1.20;99.90;-1.60;99587.00;;;;4807551;29;88451;-65
2023/01/19 16:46:54;;;;;;;7.63;5.63;;;-1.20;99.90;-1.60;99573.00;;;;4779889;29;88184;-65
2023/01/19 16:49:25;;;;;;;15.67;5.20;;;-1.30;99.90;-1.60;99572.00;;;;4782269;29;88085;-65
2023/01/19 16:51:53;;;;;;;8.87;5.70;;;-1.30;99.90;-1.60;99576.00;;;;4780403;29;87630;-65
2023/01/19 16:54:24;;;;;;;13.20;6.50;;;-1.20;99.90;-1.60;99582.00;;;;4782204;29;86988;-65
2023/01/19 16:56:50;;;;;;;10.80;7.43;;;-1.30;99.90;-1.60;99581.00;;;;4795317;29;89031;-67
2023/01/19 16:59:17;;;;;;;9.67;6.13;;;-1.30;99.90;-1.70;99584.00;;;;4781428;29;87903;-68
2023/01/19 17:01:44;;;;;;;11.57;6.53;;;-1.20;99.90;-1.70;99587.00;;;;4780042;29;89057;-67
2023/01/19 17:04:11;;;;;;;10.53;7.10;;;-1.40;99.90;-1.70;99590.00;;;;4797319;29;87858;-68
2023/01/19 17:06:37;;;;;;;10.27;7.43;;;-1.30;99.90;-1.70;99576.00;;;;4785517;29;114045;-68
2023/01/19 17:09:04;;;;;;;12.30;7.40;;;-0.50;99.90;-1.70;99583.00;;;;4783135;29;110554;-69
2023/01/19 17:11:32;;;;;;;11.03;7.07;;;-1.20;99.90;-1.70;99597.00;;;;4794707;29;87708;-69
2023/01/19 17:14:13;;;;;;;9.90;6.47;;;-1.30;99.90;-1.80;99586.00;;;;4782141;29;88045;-68
2023/01/19 17:16:40;;;;;;;12.70;5.80;;;-1.40;99.90;-1.80;99593.00;;;;4785320;29;108306;-68
2023/01/19 17:19:07;;;;;;;12.27;6.60;;;-1.40;99.90;-1.80;99587.00;;;;4785909;29;88627;-68
2023/01/19 17:21:34;;;;;;;14.23;7.07;;;-0.70;99.90;-1.90;99588.00;;;;4792269;29;87895;-69
2023/01/19 17:24:00;;;;;;;8.03;5.87;;;-1.40;99.90;-1.90;99587.00;;;;4798267;29;97285;-68
2023/01/19 17:26:27;;;;;;;6.10;4.70;;;-1.40;99.90;-1.90;99584.00;;;;4782535;29;90217;-68
2023/01/19 17:29:01;;;;;;;7.83;5.60;;;-1.50;99.90;-1.90;99591.00;;;;4783292;29;90338;-68
2023/01/19 17:31:27;;;;;;;8.37;5.47;;;-1.50;99.90;-2.00;99585.00;;;;4782225;29;87929;-68
2023/01/19 17:33:53;;;;;;;10.33;5.50;;;-0.60;99.90;-2.00;99590.00;;;;4783576;29;89839;-69
2023/01/19 17:36:23;;;;;;;6.67;5.07;;;-1.60;99.90;-2.00;99585.00;;;;4780510;29;89285;-68
2023/01/19 17:38:51;;;;;;;10.97;6.37;;;-1.60;99.90;-2.10;99594.00;;;;4785658;29;87967;-68